createdAt,value
2019-04-06T00:02:36.390Z,5.37
2019-04-06T00:07:39.839Z,5.67
2019-04-06T00:12:43.303Z,5.08
2019-04-06T00:17:46.779Z,4.95
2019-04-06T00:22:50.235Z,5.25
2019-04-06T00:27:53.697Z,5.28
2019-04-06T00:32:58.798Z,4.80
2019-04-06T00:38:02.257Z,4.65
2019-04-06T00:43:05.813Z,4.62
2019-04-06T00:48:09.262Z,4.57
2019-04-06T00:53:12.716Z,5.15
2019-04-06T00:58:16.170Z,4.43
2019-04-06T01:03:19.632Z,4.78
2019-04-06T01:08:23.093Z,4.35
2019-04-06T01:13:26.561Z,4.97
2019-04-06T01:18:30.029Z,4.53
2019-04-06T01:23:33.488Z,4.22
2019-04-06T01:28:36.949Z,4.93
2019-04-06T01:33:40.429Z,4.47
2019-04-06T01:38:43.889Z,4.83
2019-04-06T01:43:47.350Z,4.12
2019-04-06T01:48:50.854Z,4.20
2019-04-06T01:53:54.340Z,3.98
2019-04-06T01:58:57.792Z,4.40
2019-04-06T02:04:01.377Z,4.10
2019-04-06T02:09:06.130Z,4.42
2019-04-06T02:14:09.589Z,3.70
2019-04-06T02:19:13.091Z,4.12
2019-04-06T02:24:16.620Z,3.98
2019-04-06T02:29:20.035Z,4.20
2019-04-06T02:34:34.261Z,4.37
2019-04-06T02:39:39.379Z,4.00
2019-04-06T02:44:42.850Z,4.08
2019-04-06T02:49:46.309Z,4.62
2019-04-06T02:54:49.769Z,4.45
2019-04-06T02:59:53.351Z,4.20
2019-04-06T03:04:56.785Z,3.58
2019-04-06T03:10:00.314Z,3.83
2019-04-06T03:15:04.009Z,4.17
2019-04-06T03:20:07.905Z,3.92
2019-04-06T03:25:11.704Z,4.20
2019-04-06T03:30:15.828Z,4.20
2019-04-06T03:35:19.341Z,3.70
2019-04-06T03:40:22.797Z,4.07
2019-04-06T03:45:26.329Z,4.05
2019-04-06T03:50:29.915Z,4.60
2019-04-06T03:55:33.547Z,3.83
2019-04-06T04:00:37.084Z,3.95
2019-04-06T04:05:40.523Z,4.10
2019-04-06T04:10:47.025Z,3.75
2019-04-06T04:15:49.324Z,3.25
2019-04-06T04:20:52.786Z,3.52
2019-04-06T04:25:56.239Z,3.67
2019-04-06T04:30:59.765Z,3.57
2019-04-06T04:36:03.237Z,3.30
2019-04-06T04:41:06.687Z,3.42
2019-04-06T04:46:10.150Z,3.15
2019-04-06T04:51:13.601Z,3.27
2019-04-06T04:56:17.066Z,3.47
2019-04-06T05:01:20.655Z,3.65
2019-04-06T05:06:24.155Z,3.30
2019-04-06T05:11:27.642Z,3.77
2019-04-06T05:16:31.072Z,3.40
2019-04-06T05:21:34.536Z,3.30
2019-04-06T05:26:38.421Z,3.65
2019-04-06T05:31:41.947Z,2.98
2019-04-06T05:36:45.403Z,2.83
2019-04-06T05:41:50.520Z,3.03
2019-04-06T05:46:54.047Z,3.22
2019-04-06T05:51:57.509Z,2.98
2019-04-06T05:57:00.968Z,3.47
2019-04-06T06:02:04.876Z,3.15
2019-04-06T06:07:08.339Z,3.30
2019-04-06T06:12:12.972Z,2.80
2019-04-06T06:17:16.572Z,3.00
2019-04-06T06:22:20.162Z,2.92
2019-04-06T06:27:23.945Z,2.65
2019-04-06T06:32:27.448Z,2.55
2019-04-06T06:37:30.902Z,3.42
2019-04-06T06:42:34.359Z,2.67
2019-04-06T06:47:37.821Z,3.10
2019-04-06T06:52:41.280Z,2.90
2019-04-06T06:57:44.742Z,6.17
2019-04-06T07:02:48.202Z,11.53
2019-04-06T07:07:51.833Z,13.20
2019-04-06T07:12:55.309Z,12.07
2019-04-06T07:17:58.778Z,10.50
2019-04-06T07:23:02.242Z,9.17
2019-04-06T07:28:05.705Z,7.93
2019-04-06T07:33:09.164Z,7.65
2019-04-06T07:38:12.800Z,6.97
2019-04-06T07:43:16.365Z,6.33
2019-04-06T07:48:20.056Z,6.53
2019-04-06T07:53:23.561Z,5.70
2019-04-06T07:58:27.016Z,6.40
2019-04-06T08:03:30.844Z,6.30
2019-04-06T08:08:34.310Z,6.70
2019-04-06T08:13:37.770Z,6.55
2019-04-06T08:18:41.223Z,6.85
2019-04-06T08:23:44.707Z,7.00
2019-04-06T08:28:58.929Z,6.53
2019-04-06T08:33:53.361Z,6.92
2019-04-06T08:38:57.090Z,6.80
2019-04-06T08:44:00.548Z,6.03
2019-04-06T08:49:04.030Z,6.15
2019-04-06T08:54:07.657Z,6.70
2019-04-06T08:59:13.148Z,6.80
2019-04-06T09:04:16.588Z,6.85
2019-04-06T09:09:20.199Z,6.83
2019-04-06T09:14:23.659Z,7.00
2019-04-06T09:19:27.133Z,6.42
2019-04-06T09:24:30.610Z,6.92
2019-04-06T09:29:34.097Z,6.07
2019-04-06T09:34:37.690Z,5.90
2019-04-06T09:39:41.126Z,6.92
2019-04-06T09:44:49.179Z,6.78
2019-04-06T09:50:12.378Z,7.10
2019-04-06T09:55:26.358Z,6.60
2019-04-06T10:00:40.044Z,6.33
2019-04-06T10:06:01.195Z,7.22
2019-04-06T10:11:22.327Z,6.47
2019-04-06T10:16:39.592Z,7.10
2019-04-06T10:21:50.681Z,8.75
2019-04-06T10:26:58.460Z,8.23
2019-04-06T10:32:03.690Z,8.83
2019-04-06T10:37:25.030Z,8.40
2019-04-06T10:42:35.593Z,9.40
2019-04-06T10:47:43.392Z,7.53
2019-04-06T10:52:57.292Z,8.40
2019-04-06T10:58:17.541Z,8.65
2019-04-06T11:03:28.904Z,8.33
2019-04-06T11:08:49.045Z,6.53
2019-04-06T11:13:57.119Z,7.05
2019-04-06T11:19:08.004Z,7.83
2019-04-06T11:24:13.075Z,8.40
2019-04-06T11:29:18.177Z,8.78
2019-04-06T11:34:26.228Z,7.95
2019-04-06T11:39:47.273Z,6.97
2019-04-06T11:44:58.417Z,6.75
2019-04-06T11:50:12.818Z,7.67
2019-04-06T11:55:26.639Z,7.33
2019-04-06T12:00:34.672Z,7.90
2019-04-06T12:05:40.227Z,8.23
2019-04-06T12:10:45.415Z,8.18
2019-04-06T12:16:02.534Z,8.83
2019-04-06T12:21:07.867Z,10.10
2019-04-06T12:26:15.687Z,9.00
2019-04-06T12:31:20.804Z,9.63
2019-04-06T12:36:31.821Z,9.05
2019-04-06T12:41:53.211Z,9.55
2019-04-06T12:47:04.128Z,8.98
2019-04-06T12:52:09.308Z,9.13
2019-04-06T12:57:20.344Z,9.15
2019-04-06T13:02:34.657Z,8.85
2019-04-06T13:07:39.794Z,8.13
2019-04-06T13:12:59.935Z,8.30
2019-04-06T13:18:20.898Z,8.10
2019-04-06T13:23:42.470Z,8.63
2019-04-06T13:28:47.924Z,7.67
2019-04-06T13:34:09.831Z,7.70
2019-04-06T13:39:29.621Z,7.70
2019-04-06T13:44:34.816Z,7.65
2019-04-06T13:49:56.123Z,7.30
2019-04-06T13:55:07.009Z,7.47
2019-04-06T14:00:18.036Z,7.92
2019-04-06T14:05:39.357Z,7.07
2019-04-06T14:11:11.318Z,7.58
2019-04-06T14:16:18.983Z,7.92
2019-04-06T14:21:24.236Z,6.90
2019-04-06T14:26:35.188Z,8.13
2019-04-06T14:31:40.578Z,7.27
2019-04-06T14:36:46.021Z,7.05
2019-04-06T14:42:09.230Z,7.15
2019-04-06T14:47:29.569Z,7.78
2019-04-06T14:52:37.459Z,7.17
2019-04-06T14:57:59.454Z,6.70
2019-04-06T15:03:04.740Z,7.00
2019-04-06T15:08:15.466Z,6.80
2019-04-06T15:13:23.226Z,6.83
2019-04-06T15:18:28.763Z,6.60
2019-04-06T15:23:42.580Z,6.75
2019-04-06T15:28:56.827Z,6.08
2019-04-06T15:34:05.296Z,6.75
2019-04-06T15:39:10.448Z,7.00
2019-04-06T15:44:18.272Z,6.70
2019-04-06T15:49:29.318Z,6.58
2019-04-06T15:54:34.431Z,7.15
2019-04-06T15:59:39.684Z,7.35
2019-04-06T16:04:51.054Z,7.15
2019-04-06T16:09:56.156Z,7.00
2019-04-06T16:15:01.270Z,7.22
2019-04-06T16:20:09.200Z,7.17
2019-04-06T16:25:23.539Z,7.47
2019-04-06T16:30:31.380Z,7.15
2019-04-06T16:35:45.282Z,7.25
2019-04-06T16:40:59.129Z,6.30
2019-04-06T16:46:19.525Z,6.47
2019-04-06T16:51:24.622Z,6.97
2019-04-06T16:56:32.453Z,6.45
2019-04-06T17:01:37.559Z,6.67
2019-04-06T17:06:52.144Z,7.40
2019-04-06T17:12:06.275Z,6.65
2019-04-06T17:17:17.603Z,7.35
2019-04-06T17:22:25.567Z,7.10
2019-04-06T17:27:30.669Z,7.20
2019-04-06T17:32:37.905Z,7.15
2019-04-06T17:37:57.741Z,7.58
2019-04-06T17:43:05.495Z,6.97
2019-04-06T17:48:30.513Z,7.15
2019-04-06T17:53:38.654Z,6.90
2019-04-06T17:58:56.416Z,6.37
2019-04-06T18:04:01.548Z,6.72
2019-04-06T18:09:18.578Z,6.25
2019-04-06T18:14:22.384Z,5.97
2019-04-06T18:19:25.982Z,6.12
2019-04-06T18:24:29.518Z,5.87
2019-04-06T18:29:33.046Z,5.80
2019-04-06T18:34:36.597Z,5.85
2019-04-06T18:39:40.405Z,5.95
2019-04-06T18:44:44.349Z,5.73
2019-04-06T18:49:47.940Z,5.72
2019-04-06T18:54:51.835Z,6.20
2019-04-06T18:59:55.325Z,6.25
2019-04-06T19:04:58.785Z,6.58
2019-04-06T19:10:02.676Z,6.12
2019-04-06T19:15:08.196Z,6.15
2019-04-06T19:20:12.313Z,6.47
2019-04-06T19:25:15.970Z,6.47
2019-04-06T19:30:20.411Z,6.15
2019-04-06T19:35:23.897Z,6.92
2019-04-06T19:40:27.360Z,5.85
2019-04-06T19:45:30.826Z,6.30
2019-04-06T19:50:34.285Z,6.55
2019-04-06T19:55:38.223Z,6.15
2019-04-06T20:00:41.788Z,6.22
2019-04-06T20:05:45.511Z,6.72
2019-04-06T20:10:48.986Z,5.78
2019-04-06T20:15:52.454Z,6.15
2019-04-06T20:20:55.958Z,5.78
2019-04-06T20:25:59.368Z,5.70
2019-04-06T20:31:02.830Z,6.03
2019-04-06T20:36:06.288Z,6.05
2019-04-06T20:41:09.849Z,6.00
2019-04-06T20:46:13.282Z,5.62
2019-04-06T20:51:16.743Z,5.50
2019-04-06T20:56:20.762Z,5.10
2019-04-06T21:01:24.284Z,5.20
2019-04-06T21:06:28.094Z,5.55
2019-04-06T21:11:31.591Z,5.12
2019-04-06T21:16:35.053Z,5.22
2019-04-06T21:21:38.512Z,4.80
2019-04-06T21:26:41.969Z,5.37
2019-04-06T21:31:45.427Z,5.30
2019-04-06T21:36:49.532Z,4.87
2019-04-06T21:41:53.131Z,4.78
2019-04-06T21:46:57.415Z,5.10
2019-04-06T21:52:01.050Z,4.42
2019-04-06T21:57:05.072Z,4.77
2019-04-06T22:02:08.714Z,4.80
2019-04-06T22:07:12.200Z,5.15
2019-04-06T22:12:16.273Z,4.58
2019-04-06T22:17:19.816Z,5.00
2019-04-06T22:22:23.273Z,4.42
2019-04-06T22:27:26.761Z,4.60
2019-04-06T22:32:30.188Z,4.50
2019-04-06T22:37:34.112Z,4.25
2019-04-06T22:42:37.730Z,4.53
2019-04-06T22:47:41.506Z,4.28
2019-04-06T22:52:45.230Z,4.35
2019-04-06T22:57:48.945Z,4.45
2019-04-06T23:03:05.985Z,4.67
2019-04-06T23:08:09.438Z,5.08
2019-04-06T23:13:13.239Z,4.20
2019-04-06T23:18:16.884Z,4.50
2019-04-06T23:23:20.871Z,4.40
2019-04-06T23:28:24.435Z,4.62
2019-04-06T23:33:28.064Z,4.28
2019-04-06T23:38:31.622Z,3.83
2019-04-06T23:43:35.083Z,4.60
2019-04-06T23:48:39.127Z,4.33
2019-04-06T23:53:42.768Z,4.15
2019-04-06T23:58:47.057Z,4.50
